Time;durP1;ratioP1;P1;durP2;ratioP2;P2;SDS_P1;SDS_P2;PMS_P1;PMS_P2;Temp;Humidity;BMP_temperature;BMP_pressure;BME280_temperature;BME280_humidity;BME280_pressure;Samples;Min_cycle;Max_cycle;Signal;HPM_P1;HPM_P2
2023/02/03 00:00:04;;;;;;;51.25;47.95;;;;;;;0.47;100.00;101256.69;5053037;28;20095;-82
2023/02/03 00:02:30;;;;;;;51.97;48.58;;;;;;;0.66;100.00;101262.84;5052659;28;20053;-82
2023/02/03 00:04:58;;;;;;;52.47;49.03;;;;;;;0.83;100.00;101273.72;5053577;28;20580;-82
2023/02/03 00:07:25;;;;;;;53.00;49.35;;;;;;;0.73;100.00;101267.56;5053254;28;20106;-82
2023/02/03 00:09:52;;;;;;;52.20;48.50;;;;;;;0.99;100.00;101250.53;5053245;28;20560;-82
2023/02/03 00:12:19;;;;;;;50.55;46.97;;;;;;;0.74;100.00;101262.22;5053145;28;20045;-82
2023/02/03 00:14:45;;;;;;;50.85;47.55;;;;;;;0.81;100.00;101255.53;5053065;28;20053;-82
2023/02/03 00:17:13;;;;;;;53.72;50.30;;;;;;;0.73;100.00;101260.59;5052948;28;20045;-82
2023/02/03 00:19:40;;;;;;;60.10;56.28;;;;;;;0.89;100.00;101253.09;5053582;28;20052;-82
2023/02/03 00:22:08;;;;;;;53.80;50.10;;;;;;;0.95;100.00;101254.38;5053753;28;20053;-82
2023/02/03 00:24:35;;;;;;;56.63;52.72;;;;;;;1.05;100.00;101251.78;5053142;28;20430;-81
2023/02/03 00:27:02;;;;;;;54.55;51.10;;;;;;;0.54;100.00;101261.28;5048353;28;20041;-81
2023/02/03 00:29:28;;;;;;;52.40;49.10;;;;;;;0.91;100.00;101266.06;5053362;28;20461;-81
2023/02/03 00:31:57;;;;;;;54.10;50.40;;;;;;;0.68;100.00;101281.03;5053209;28;20053;-82
2023/02/03 00:34:28;;;;;;;50.58;47.20;;;;;;;0.85;100.00;101282.28;5053212;28;20438;-82
2023/02/03 00:36:54;;;;;;;50.47;47.28;;;;;;;1.12;100.00;101289.53;5053246;28;20178;-82
2023/02/03 00:39:23;;;;;;;51.92;48.72;;;;;;;0.61;100.00;101304.25;5052722;28;20127;-82
2023/02/03 00:41:49;;;;;;;53.47;49.97;;;;;;;0.80;100.00;101298.34;5051841;28;20103;-81
2023/02/03 00:44:16;;;;;;;51.92;48.42;;;;;;;0.83;100.00;101285.00;5052489;28;20110;-81
2023/02/03 00:46:43;;;;;;;51.13;47.83;;;;;;;1.20;100.00;101287.09;5052651;28;20041;-81
2023/02/03 00:49:10;;;;;;;50.15;46.95;;;;;;;1.02;100.00;101279.03;5053219;28;20177;-82
2023/02/03 00:51:36;;;;;;;55.38;51.75;;;;;;;0.91;100.00;101286.97;5053339;28;20114;-82
2023/02/03 00:54:03;;;;;;;52.25;49.05;;;;;;;0.99;100.00;101275.84;5052786;28;20060;-82
2023/02/03 00:56:31;;;;;;;52.70;48.53;;;;;;;0.69;100.00;101277.47;5052089;28;20110;-82
2023/02/03 00:58:58;;;;;;;54.25;50.75;;;;;;;1.16;100.00;101287.53;5052499;28;20537;-82
2023/02/03 01:01:25;;;;;;;55.63;51.92;;;;;;;1.31;100.00;101294.06;5052337;28;20477;-82
2023/02/03 01:03:54;;;;;;;51.20;47.90;;;;;;;1.07;100.00;101294.34;5052873;28;20053;-82
2023/02/03 01:06:22;;;;;;;51.63;48.25;;;;;;;1.26;100.00;101286.59;5056598;28;20476;-82
2023/02/03 01:08:49;;;;;;;52.05;48.92;;;;;;;1.52;100.00;101291.38;5057246;28;20045;-82
2023/02/03 01:11:18;;;;;;;48.53;45.47;;;;;;;1.21;100.00;101273.09;5056326;28;20469;-82
2023/02/03 01:13:47;;;;;;;49.83;46.58;;;;;;;1.52;100.00;101294.00;5056378;28;20458;-81
2023/02/03 01:16:18;;;;;;;51.88;48.60;;;;;;;1.63;100.00;101282.56;5054239;28;20045;-82
2023/02/03 01:18:45;;;;;;;49.88;46.58;;;;;;;1.40;100.00;101280.19;5057329;28;20049;-82
2023/02/03 01:21:13;;;;;;;57.40;53.80;;;;;;;1.18;100.00;101282.97;5056254;28;20103;-82
2023/02/03 01:23:40;;;;;;;49.80;46.55;;;;;;;1.35;100.00;101288.41;5056572;28;20094;-82
2023/02/03 01:26:10;;;;;;;50.33;47.08;;;;;;;0.99;100.00;101291.56;5052208;28;20044;-83
2023/02/03 01:28:37;;;;;;;50.85;47.42;;;;;;;0.90;100.00;101290.53;5054992;28;20049;-82
2023/02/03 01:31:14;;;;;;;55.38;51.75;;;;;;;1.26;100.00;101289.19;5055773;28;20110;-82
2023/02/03 01:33:44;;;;;;;53.00;49.28;;;;;;;1.32;100.00;101295.72;5056605;28;20045;-82
2023/02/03 01:36:12;;;;;;;56.95;53.35;;;;;;;1.06;100.00;101295.28;5056099;28;20430;-81
2023/02/03 01:38:39;;;;;;;49.88;46.38;;;;;;;0.99;100.00;101291.56;5052152;28;20557;-82
2023/02/03 01:41:10;;;;;;;52.45;48.67;;;;;;;0.99;100.00;101286.31;5055296;28;20049;-82
2023/02/03 01:43:38;;;;;;;55.53;51.70;;;;;;;0.88;100.00;101288.06;5055926;28;20537;-82
2023/02/03 01:46:18;;;;;;;54.00;50.20;;;;;;;1.24;100.00;101293.75;5056026;28;20049;-82
2023/02/03 01:48:46;;;;;;;52.63;49.22;;;;;;;0.94;100.00;101294.56;5055802;28;20588;-82
2023/02/03 01:51:13;;;;;;;50.05;46.45;;;;;;;0.88;100.00;101293.28;5056071;28;20057;-81
2023/02/03 01:53:40;;;;;;;52.85;49.35;;;;;;;0.82;100.00;101312.13;5055295;28;20580;-82
2023/02/03 01:56:09;;;;;;;63.38;58.28;;;;;;;1.01;100.00;101310.56;5055473;28;20110;-82
2023/02/03 01:58:39;;;;;;;129.45;77.85;;;;;;;1.17;100.00;101305.69;5054010;28;20045;-82
2023/02/03 02:01:06;;;;;;;59.85;55.10;;;;;;;0.92;100.00;101309.56;5055057;28;20057;-82
2023/02/03 02:03:38;;;;;;;52.88;49.35;;;;;;;0.97;100.00;101306.53;5055628;28;20134;-82
2023/02/03 02:06:07;;;;;;;58.25;54.40;;;;;;;1.10;100.00;101318.47;5055345;28;20537;-82
2023/02/03 02:08:35;;;;;;;52.38;48.90;;;;;;;0.94;100.00;101320.72;5055681;28;20049;-82
2023/02/03 02:11:03;;;;;;;51.15;47.90;;;;;;;1.09;100.00;101311.59;5055173;28;20100;-82
2023/02/03 02:13:33;;;;;;;53.47;50.15;;;;;;;1.75;100.00;101310.31;5056368;28;20123;-81
2023/02/03 02:16:10;;;;;;;52.70;49.05;;;;;;;1.16;100.00;101308.44;5054992;28;20049;-82
2023/02/03 02:18:58;;;;;;;53.30;50.00;;;;;;;1.22;100.00;101319.22;5055693;28;20102;-82
2023/02/03 02:21:45;;;;;;;54.65;50.47;;;;;;;0.82;100.00;101313.91;5056056;28;20408;-82
2023/02/03 02:24:51;;;;;;;56.33;52.50;;;;;;;0.91;100.00;101316.56;5054412;28;20510;-81
2023/02/03 02:27:31;;;;;;;56.78;53.08;;;;;;;1.21;100.00;101321.94;5050820;28;20063;-82
2023/02/03 02:30:24;;;;;;;54.65;51.05;;;;;;;0.98;100.00;101321.28;5055124;28;20445;-81
2023/02/03 02:33:04;;;;;;;60.22;55.55;;;;;;;0.89;100.00;101321.09;5052844;28;20052;-81
2023/02/03 02:35:44;;;;;;;57.22;53.63;;;;;;;1.26;100.00;101325.03;5053780;28;20106;-81
2023/02/03 02:38:17;;;;;;;53.92;50.53;;;;;;;1.09;100.00;101327.28;5055406;28;20057;-82
2023/02/03 02:40:52;;;;;;;57.95;53.47;;;;;;;0.91;100.00;101328.84;5052876;28;20052;-82
2023/02/03 02:43:23;;;;;;;63.28;58.58;;;;;;;0.91;100.00;101332.28;5054840;28;20106;-82
2023/02/03 02:45:52;;;;;;;71.95;65.28;;;;;;;0.90;100.00;101327.16;5054718;28;20045;-82
2023/02/03 02:48:27;;;;;;;57.42;53.50;;;;;;;0.79;100.00;101333.28;5055092;28;20496;-81
2023/02/03 02:50:56;;;;;;;59.67;55.55;;;;;;;0.90;100.00;101335.00;5055390;28;20457;-82
2023/02/03 02:53:26;;;;;;;57.83;53.97;;;;;;;1.26;100.00;101338.94;5054172;28;20049;-82
2023/02/03 02:55:55;;;;;;;54.10;50.65;;;;;;;1.07;100.00;101333.59;5054941;28;20103;-81
2023/02/03 02:58:24;;;;;;;53.70;50.38;;;;;;;1.06;100.00;101345.00;5054372;28;20052;-82
2023/02/03 03:00:51;;;;;;;51.15;47.85;;;;;;;0.98;100.00;101343.03;5054246;28;20048;-82
2023/02/03 03:03:20;;;;;;;53.05;49.35;;;;;;;1.10;100.00;101346.44;5054231;28;20115;-81
2023/02/03 03:05:53;;;;;;;55.15;51.65;;;;;;;1.02;100.00;101339.22;5050089;28;20098;-82
2023/02/03 03:08:25;;;;;;;58.22;54.67;;;;;;;1.51;100.00;101331.59;5053944;28;20119;-82
2023/02/03 03:10:55;;;;;;;54.30;50.92;;;;;;;1.16;100.00;101329.38;5054509;28;20052;-82
2023/02/03 03:13:27;;;;;;;60.38;56.45;;;;;;;1.59;100.00;101332.59;5054526;28;20049;-81
2023/02/03 03:15:55;;;;;;;;;;;;;;;1.20;100.00;101339.44;5054503;28;20114;-82
2023/02/03 03:18:25;;;;;;;52.70;49.72;;;;;;;1.63;100.00;101340.19;5054569;28;20379;-82
2023/02/03 03:20:58;;;;;;;54.95;51.38;;;;;;;1.58;100.00;101330.94;5054279;28;20053;-82
2023/02/03 03:23:29;;;;;;;50.63;46.97;;;;;;;1.40;100.00;101334.31;5053832;28;20063;-81
2023/02/03 03:26:03;;;;;;;54.90;51.25;;;;;;;1.64;100.00;101342.69;5052548;28;20049;-81
2023/02/03 03:28:37;;;;;;;62.53;58.17;;;;;;;1.55;100.00;101349.53;5053827;28;20498;-82
2023/02/03 03:31:04;;;;;;;55.42;51.75;;;;;;;1.23;100.00;101356.69;5054177;28;20048;-82
2023/02/03 03:33:31;;;;;;;53.75;50.10;;;;;;;1.08;100.00;101359.63;5054007;28;20134;-82
2023/02/03 03:36:06;;;;;;;52.05;47.90;;;;;;;1.00;100.00;101354.22;5054011;28;20106;-81
2023/02/03 03:38:39;;;;;;;51.80;48.50;;;;;;;1.42;100.00;101364.63;5053066;28;20053;-82
2023/02/03 03:41:12;;;;;;;51.70;48.47;;;;;;;1.13;100.00;101375.78;5052883;28;20052;-82
2023/02/03 03:43:45;;;;;;;53.08;49.67;;;;;;;1.36;100.00;101373.00;5053936;28;20556;-82
2023/02/03 03:46:14;;;;;;;54.00;50.40;;;;;;;1.75;100.00;101373.19;5053445;28;20045;-82
2023/02/03 03:48:46;;;;;;;53.65;50.25;;;;;;;2.48;100.00;101379.84;5053884;28;20053;-82
2023/02/03 03:51:19;;;;;;;51.88;48.47;;;;;;;1.52;100.00;101376.00;5054136;28;20049;-82
2023/02/03 03:53:50;;;;;;;50.45;47.25;;;;;;;1.28;100.00;101380.69;5052779;28;20126;-82
2023/02/03 03:56:23;;;;;;;53.28;49.88;;;;;;;1.87;100.00;101376.53;5053830;28;20057;-82
2023/02/03 03:58:52;;;;;;;57.60;53.80;;;;;;;1.61;100.00;101377.00;5049112;28;20057;-82
2023/02/03 04:01:21;;;;;;;50.88;47.83;;;;;;;1.54;100.00;101375.84;5053149;28;20133;-82
2023/02/03 04:03:52;;;;;;;50.30;47.10;;;;;;;1.24;100.00;101387.13;5053577;28;20053;-81
2023/02/03 04:06:20;;;;;;;53.45;50.03;;;;;;;1.64;100.00;101386.38;5053546;28;20473;-82
2023/02/03 04:08:47;;;;;;;53.10;49.63;;;;;;;1.30;100.00;101374.38;5052996;28;20492;-82
2023/02/03 04:11:59;;;;;;;50.78;47.67;;;;;;;1.86;100.00;101380.94;5053396;28;20568;-82
2023/02/03 04:14:00;;;;;;;51.83;48.42;;;;;;;1.35;100.00;101395.72;5050259;28;20442;-82
2023/02/03 04:16:27;;;;;;;54.05;50.65;;;;;;;1.29;100.00;101390.19;5053227;28;20053;-81
2023/02/03 04:18:54;;;;;;;50.95;47.85;;;;;;;1.19;100.00;101395.38;5051068;28;20049;-82
2023/02/03 04:21:22;;;;;;;47.60;44.60;;;;;;;1.45;100.00;101382.69;5053340;28;20494;-82
2023/02/03 04:23:50;;;;;;;50.63;47.17;;;;;;;1.45;100.00;101384.47;5052296;28;20110;-82
2023/02/03 04:26:16;;;;;;;49.42;46.38;;;;;;;1.93;100.00;101384.69;5052730;28;20052;-82
2023/02/03 04:28:44;;;;;;;49.17;45.92;;;;;;;1.67;100.00;101389.56;5053557;28;20115;-82
2023/02/03 04:31:10;;;;;;;50.85;47.65;;;;;;;1.28;100.00;101405.06;5052734;28;20045;-82
2023/02/03 04:33:37;;;;;;;51.67;48.30;;;;;;;1.57;100.00;101402.63;5052483;28;20477;-82
2023/02/03 04:36:04;;;;;;;55.03;51.35;;;;;;;1.29;100.00;101403.28;5051425;28;20045;-82
2023/02/03 04:38:33;;;;;;;52.50;49.10;;;;;;;1.82;100.00;101400.53;5052219;28;20075;-82
2023/02/03 04:40:59;;;;;;;52.63;48.95;;;;;;;1.44;100.00;101404.59;5052330;28;20139;-82
2023/02/03 04:43:26;;;;;;;52.70;49.25;;;;;;;1.37;100.00;101396.44;5052888;28;20477;-82
2023/02/03 04:45:53;;;;;;;56.42;52.33;;;;;;;1.20;100.00;101399.63;5052104;28;20053;-82
2023/02/03 04:48:20;;;;;;;51.00;47.40;;;;;;;1.31;100.00;101411.84;5052305;28;20044;-81
2023/02/03 04:50:47;;;;;;;51.55;48.15;;;;;;;1.52;100.00;101407.41;5052777;28;20114;-82
2023/02/03 04:53:13;;;;;;;52.60;49.17;;;;;;;1.87;100.00;101414.03;5037802;28;20561;-82
2023/02/03 04:55:42;;;;;;;50.30;47.00;;;;;;;1.65;100.00;101412.44;5052871;28;20122;-82
2023/02/03 04:58:08;;;;;;;51.65;48.08;;;;;;;1.56;100.00;101410.59;5052085;28;20057;-82
2023/02/03 05:00:35;;;;;;;54.75;51.05;;;;;;;1.44;100.00;101420.31;5052067;28;20103;-82
2023/02/03 05:03:02;;;;;;;50.42;47.03;;;;;;;1.52;100.00;101430.16;5051954;28;20118;-82
2023/02/03 05:05:29;;;;;;;55.33;51.72;;;;;;;1.82;100.00;101427.53;5052722;28;20045;-82
2023/02/03 05:07:55;;;;;;;50.95;47.65;;;;;;;1.44;100.00;101424.72;5049299;28;20060;-82
2023/02/03 05:10:22;;;;;;;53.53;50.22;;;;;;;2.26;100.00;101425.47;5046475;28;20483;-82
2023/02/03 05:12:50;;;;;;;50.38;47.08;;;;;;;1.89;100.00;101429.63;5049588;28;20123;-82
2023/02/03 05:15:17;;;;;;;51.08;47.97;;;;;;;1.82;100.00;101438.03;5049737;28;20130;-82
2023/02/03 05:17:44;;;;;;;49.22;46.10;;;;;;;1.67;100.00;101438.50;5051859;28;20049;-82
2023/02/03 05:20:11;;;;;;;48.25;44.95;;;;;;;1.42;100.00;101430.06;5049922;28;20041;-82
2023/02/03 05:22:38;;;;;;;48.67;45.45;;;;;;;1.35;100.00;101444.63;5047943;28;20103;-81
2023/02/03 05:25:06;;;;;;;46.63;43.63;;;;;;;1.76;100.00;101451.63;5052034;28;20473;-82
2023/02/03 05:27:32;;;;;;;47.85;44.65;;;;;;;1.87;100.00;101440.22;5052410;28;20110;-82
2023/02/03 05:30:01;;;;;;;50.05;46.85;;;;;;;1.35;100.00;101452.50;5051899;28;20518;-81
2023/02/03 05:32:27;;;;;;;47.22;44.13;;;;;;;1.97;100.00;101448.16;5040006;28;20048;-82
2023/02/03 05:34:54;;;;;;;47.97;44.88;;;;;;;1.26;100.00;101459.31;5052539;28;20053;-82
2023/02/03 05:37:21;;;;;;;49.90;46.28;;;;;;;1.34;100.00;101471.78;5044064;28;20534;-82
2023/02/03 05:39:47;;;;;;;48.65;45.55;;;;;;;1.46;100.00;101473.38;5048440;28;20114;-82
2023/02/03 05:42:13;;;;;;;47.55;44.55;;;;;;;1.36;100.00;101481.19;5047376;28;20044;-82
2023/02/03 05:44:40;;;;;;;48.13;44.65;;;;;;;1.56;100.00;101468.19;5049066;28;20495;-82
2023/02/03 05:47:12;;;;;;;47.78;44.28;;;;;;;1.32;100.00;101468.47;5051627;28;20041;-82
2023/02/03 05:49:40;;;;;;;44.92;42.10;;;;;;;1.81;100.00;101472.19;5045524;28;20126;-82
2023/02/03 05:52:06;;;;;;;46.00;43.10;;;;;;;1.86;100.00;101487.53;5048933;28;20044;-82
2023/02/03 05:54:33;;;;;;;47.28;44.17;;;;;;;2.14;100.00;101483.38;5053326;28;20060;-82
2023/02/03 05:57:00;;;;;;;46.80;43.67;;;;;;;1.49;100.00;101475.75;5052389;28;20310;-82
2023/02/03 05:59:27;;;;;;;47.30;44.30;;;;;;;1.67;100.00;101476.00;5053654;28;20052;-82
2023/02/03 06:01:53;;;;;;;47.60;44.28;;;;;;;1.47;100.00;101489.91;5054146;28;20041;-83
2023/02/03 06:04:21;;;;;;;47.13;44.03;;;;;;;1.54;100.00;101488.44;4355871;28;10000898;-82
2023/02/03 06:06:48;;;;;;;47.30;44.20;;;;;;;1.60;100.00;101495.78;5074854;28;20051;-82
2023/02/03 06:09:15;;;;;;;48.58;45.22;;;;;;;1.66;100.00;101499.69;5081458;28;20105;-82
2023/02/03 06:11:42;;;;;;;50.25;46.85;;;;;;;1.51;100.00;101494.78;5083693;28;20552;-82
2023/02/03 06:14:09;;;;;;;48.35;45.17;;;;;;;1.66;100.00;101495.25;5084298;28;20052;-82
2023/02/03 06:16:36;;;;;;;48.95;45.63;;;;;;;1.72;100.00;101504.41;5079587;28;20507;-82
2023/02/03 06:19:02;;;;;;;49.58;45.97;;;;;;;1.76;100.00;101504.03;5084258;28;20052;-82
2023/02/03 06:21:30;;;;;;;50.28;46.97;;;;;;;1.64;100.00;101505.06;5086825;28;20051;-82
2023/02/03 06:23:57;;;;;;;51.58;48.05;;;;;;;1.72;100.00;101510.47;5082284;28;20556;-81
2023/02/03 06:26:24;;;;;;;53.60;49.97;;;;;;;1.62;100.00;101509.59;5087517;28;20385;-82
2023/02/03 06:28:51;;;;;;;50.92;47.63;;;;;;;1.90;100.00;101515.94;5079871;28;20048;-82
2023/02/03 06:31:17;;;;;;;52.03;48.47;;;;;;;2.38;100.00;101523.19;5084498;28;20140;-82
2023/02/03 06:33:44;;;;;;;53.60;49.35;;;;;;;2.09;100.00;101522.25;5081668;28;20475;-82
2023/02/03 06:36:11;;;;;;;48.38;45.38;;;;;;;2.74;100.00;101526.19;5081408;28;20214;-83
2023/02/03 06:38:39;;;;;;;49.80;46.38;;;;;;;1.90;100.00;101534.28;5048903;28;20660;-82
2023/02/03 06:41:06;;;;;;;48.90;45.80;;;;;;;2.17;100.00;101532.91;5047090;28;20044;-82
2023/02/03 06:43:34;;;;;;;48.55;45.42;;;;;;;2.02;100.00;101524.56;5050417;28;20506;-83
2023/02/03 06:46:01;;;;;;;47.47;44.03;;;;;;;2.16;100.00;101539.13;5045513;28;20055;-82
2023/02/03 06:48:28;;;;;;;45.80;42.65;;;;;;;2.37;100.00;101544.31;5049920;28;20053;-82
2023/02/03 06:50:54;;;;;;;47.22;44.10;;;;;;;1.81;100.00;101543.75;5050110;28;20785;-82
2023/02/03 06:53:21;;;;;;;49.75;46.47;;;;;;;2.04;100.00;101543.59;5049258;28;20574;-82
2023/02/03 06:55:49;;;;;;;52.42;48.83;;;;;;;2.57;100.00;101539.94;5047255;28;20552;-82
2023/02/03 06:58:16;;;;;;;52.35;48.92;;;;;;;1.86;100.00;101547.78;5053455;28;20040;-82
2023/02/03 07:00:42;;;;;;;49.17;45.95;;;;;;;1.98;100.00;101547.56;5049114;28;20102;-82
2023/02/03 07:03:09;;;;;;;53.20;49.25;;;;;;;2.78;100.00;101555.63;5053300;28;20044;-82
2023/02/03 07:05:36;;;;;;;49.80;46.50;;;;;;;2.40;100.00;101558.00;5054329;28;20057;-82
2023/02/03 07:08:03;;;;;;;51.70;48.20;;;;;;;1.88;100.00;101548.50;5055319;28;20126;-82
2023/02/03 07:10:30;;;;;;;54.30;50.38;;;;;;;2.00;100.00;101560.56;5054367;28;20041;-81
2023/02/03 07:13:03;;;;;;;51.65;47.90;;;;;;;2.29;100.00;101574.63;5053068;28;20052;-82
2023/02/03 07:15:30;;;;;;;47.85;44.50;;;;;;;2.24;100.00;101575.97;5051649;28;20049;-81
2023/02/03 07:17:57;;;;;;;48.03;44.92;;;;;;;2.08;100.00;101571.22;5051582;28;20079;-82
2023/02/03 07:20:27;;;;;;;50.47;46.85;;;;;;;2.31;100.00;101578.94;5053568;28;20053;-83
2023/02/03 07:22:55;;;;;;;49.28;45.88;;;;;;;2.22;100.00;101577.91;5038376;28;20044;-82
2023/02/03 07:25:22;;;;;;;50.47;47.08;;;;;;;1.99;100.00;101580.66;5044628;28;20068;-82
2023/02/03 07:27:50;;;;;;;51.42;47.83;;;;;;;2.09;100.00;101580.75;5045865;28;20123;-81
2023/02/03 07:30:18;;;;;;;49.95;46.50;;;;;;;2.39;100.00;101589.56;5052230;28;20037;-82
2023/02/03 07:32:49;;;;;;;49.67;46.47;;;;;;;2.50;100.00;101585.06;5053645;28;20049;-82
2023/02/03 07:35:16;;;;;;;47.40;44.45;;;;;;;2.62;100.00;101595.47;5052863;28;20045;-81
2023/02/03 07:37:43;;;;;;;50.08;46.78;;;;;;;2.74;100.00;101595.22;5049791;28;20422;-81
2023/02/03 07:43:33;;;;;;;50.95;47.50;;;;;;;1.97;100.00;101585.22;5160551;27;20369;-80
2023/02/03 07:46:01;;;;;;;51.85;48.05;;;;;;;2.08;100.00;101596.59;5159726;27;20550;-80
2023/02/03 07:48:28;;;;;;;52.42;48.53;;;;;;;2.30;100.00;101583.34;5158074;27;20074;-80
2023/02/03 07:50:55;;;;;;;52.45;48.78;;;;;;;3.09;100.00;101601.00;5154681;27;20452;-80
2023/02/03 07:53:22;;;;;;;53.00;49.60;;;;;;;3.96;100.00;101606.25;5152447;27;20039;-80
2023/02/03 07:55:49;;;;;;;51.42;47.85;;;;;;;4.11;100.00;101618.00;5161635;27;20102;-80
2023/02/03 07:58:16;;;;;;;52.95;49.25;;;;;;;3.98;100.00;101604.31;5164996;27;20047;-80
2023/02/03 08:00:44;;;;;;;52.13;48.30;;;;;;;3.55;100.00;101599.53;5153815;27;20047;-81
2023/02/03 08:03:10;;;;;;;47.42;44.13;;;;;;;3.71;100.00;101601.59;5152312;27;20091;-81
2023/02/03 08:05:37;;;;;;;52.17;48.67;;;;;;;3.67;100.00;101609.75;5154694;27;20038;-81
2023/02/03 08:10:44;;;;;;;54.60;50.85;;;;;;;3.62;100.00;101613.75;5080514;28;20926;-81
2023/02/03 08:13:10;;;;;;;50.72;47.50;;;;;;;3.63;100.00;101621.50;5076527;28;20514;-80
2023/02/03 08:15:37;;;;;;;52.33;48.83;;;;;;;3.44;100.00;101629.38;5075013;28;20110;-80
2023/02/03 08:18:14;;;;;;;;;;;;;;;;;;;;;
2023/02/03 08:24:01;;;;;;;59.60;55.63;;;;;;;4.01;100.00;101625.06;5087662;27;20409;-80
2023/02/03 08:26:28;;;;;;;58.22;54.30;;;;;;;3.95;100.00;101637.94;5085408;28;20468;-81
2023/02/03 08:28:55;;;;;;;58.17;54.15;;;;;;;3.92;100.00;101641.69;5080081;28;20517;-81
2023/02/03 08:31:21;;;;;;;52.15;49.08;;;;;;;4.19;100.00;101645.38;5085865;28;20471;-81
2023/02/03 08:33:48;;;;;;;55.95;51.97;;;;;;;3.39;100.00;101639.47;5083114;28;20049;-81
2023/02/03 08:36:15;;;;;;;56.30;52.63;;;;;;;3.24;100.00;101644.28;5084260;28;20105;-81
2023/02/03 08:38:42;;;;;;;58.58;54.38;;;;;;;3.72;100.00;101630.34;5086879;28;20101;-81
2023/02/03 08:41:11;;;;;;;54.10;50.50;;;;;;;3.14;100.00;101635.53;5087709;28;20106;-80
2023/02/03 08:43:38;;;;;;;51.58;47.88;;;;;;;3.92;100.00;101628.53;5083894;28;20044;-81
2023/02/03 08:46:06;;;;;;;54.05;50.65;;;;;;;3.54;100.00;101621.47;4386527;27;10001189;-81
2023/02/03 08:48:33;;;;;;;56.55;52.80;;;;;;;3.80;100.00;101627.03;5108293;28;20609;-82
2023/02/03 08:51:00;;;;;;;54.50;51.03;;;;;;;3.67;100.00;101622.06;5110953;28;20196;-81
2023/02/03 08:53:26;;;;;;;55.50;52.22;;;;;;;4.16;100.00;101635.97;5110246;28;20505;-81
2023/02/03 08:55:53;;;;;;;57.30;53.05;;;;;;;4.10;100.00;101632.09;5109987;28;20469;-81
2023/02/03 08:58:21;;;;;;;56.08;52.13;;;;;;;3.99;100.00;101634.06;5114330;28;20373;-81
2023/02/03 09:00:48;;;;;;;52.80;49.40;;;;;;;4.63;100.00;101646.53;5115104;28;20039;-81
2023/02/03 09:03:15;;;;;;;53.80;50.25;;;;;;;3.93;100.00;101650.38;5115456;27;20071;-82
2023/02/03 09:05:42;;;;;;;51.40;48.22;;;;;;;4.54;100.00;101650.84;5113261;28;20068;-81
2023/02/03 09:08:09;;;;;;;51.63;48.53;;;;;;;4.26;100.00;101667.50;5118022;27;20615;-81
2023/02/03 09:10:36;;;;;;;54.78;51.38;;;;;;;4.30;100.00;101661.00;5110002;28;20051;-81
2023/02/03 09:13:03;;;;;;;53.50;49.85;;;;;;;4.38;100.00;101662.91;5113168;28;20065;-81
2023/02/03 09:15:31;;;;;;;53.80;49.90;;;;;;;4.52;100.00;101668.56;5120172;28;20071;-81
2023/02/03 09:17:58;;;;;;;48.90;45.90;;;;;;;4.38;100.00;101678.69;5111371;27;20524;-81
2023/02/03 09:20:24;;;;;;;50.65;47.28;;;;;;;4.08;100.00;101675.28;5075399;28;20047;-81
2023/02/03 09:22:53;;;;;;;51.47;47.70;;;;;;;4.00;100.00;101669.91;5084943;28;20103;-81
2023/02/03 09:25:20;;;;;;;54.65;50.90;;;;;;;3.80;100.00;101671.69;5079799;28;20131;-80
2023/02/03 09:27:47;;;;;;;50.85;47.67;;;;;;;4.16;100.00;101674.59;5080758;28;20056;-81
2023/02/03 09:30:14;;;;;;;51.95;48.88;;;;;;;4.26;100.00;101675.41;5070692;28;20075;-81
2023/02/03 09:32:42;;;;;;;57.53;53.55;;;;;;;4.70;100.00;101686.25;5077748;28;20110;-81
2023/02/03 09:35:09;;;;;;;53.08;49.97;;;;;;;4.84;100.00;101667.31;5067569;28;20071;-82
2023/02/03 09:37:36;;;;;;;51.97;48.78;;;;;;;5.07;100.00;101674.84;5065294;28;20052;-81
2023/02/03 09:40:03;;;;;;;53.08;49.40;;;;;;;5.31;100.00;101671.69;5068583;28;20044;-81
2023/02/03 09:42:55;;;;;;;49.63;46.65;;;;;;;5.12;100.00;101667.34;5068672;28;20040;-81
2023/02/03 09:45:26;;;;;;;50.83;47.47;;;;;;;4.99;100.00;101652.72;5064792;28;20052;-81
2023/02/03 09:47:58;;;;;;;53.13;49.53;;;;;;;5.12;100.00;101660.28;5066998;28;20052;-81
2023/02/03 09:50:29;;;;;;;50.22;47.15;;;;;;;4.99;100.00;101657.13;5067720;28;20122;-81
2023/02/03 09:52:58;;;;;;;50.70;47.80;;;;;;;5.08;100.00;101660.72;5072116;28;20049;-81
2023/02/03 09:55:30;;;;;;;51.10;48.00;;;;;;;5.03;100.00;101654.09;5065544;28;20071;-81
2023/02/03 09:58:03;;;;;;;52.25;48.83;;;;;;;5.20;100.00;101654.25;5066180;28;20048;-81
2023/02/03 10:00:35;;;;;;;51.72;48.42;;;;;;;5.11;100.00;101657.78;5067107;28;20185;-81
2023/02/03 10:03:08;;;;;;;52.77;49.23;;;;;;;5.20;100.00;101662.97;5063636;28;20045;-81
2023/02/03 10:05:53;;;;;;;52.83;49.33;;;;;;;5.23;100.00;101659.22;5069463;28;20098;-81
2023/02/03 10:08:35;;;;;;;56.00;52.50;;;;;;;5.27;100.00;101650.06;5058807;28;20461;-81
2023/02/03 10:11:13;;;;;;;51.83;48.60;;;;;;;5.32;100.00;101655.72;5065613;28;20040;-81
2023/02/03 10:13:49;;;;;;;50.78;47.40;;;;;;;5.29;100.00;101663.91;5064266;28;20048;-83
2023/02/03 10:16:29;;;;;;;49.70;46.50;;;;;;;5.08;100.00;101656.25;5067374;28;20476;-81
2023/02/03 10:19:01;;;;;;;50.22;47.22;;;;;;;5.27;100.00;101657.97;5066552;28;20403;-83
2023/02/03 10:21:36;;;;;;;53.17;49.67;;;;;;;5.24;100.00;101653.00;5064738;28;20045;-81
2023/02/03 10:24:06;;;;;;;53.55;50.28;;;;;;;5.21;100.00;101645.41;5071234;28;20041;-83
2023/02/03 10:26:32;;;;;;;54.80;51.35;;;;;;;5.23;100.00;101640.78;5066043;28;20111;-83
2023/02/03 10:29:06;;;;;;;55.35;51.30;;;;;;;5.33;100.00;101633.69;5066757;28;20052;-83
2023/02/03 10:31:36;;;;;;;52.00;48.70;;;;;;;5.20;100.00;101639.28;5069234;28;20048;-83
2023/02/03 10:34:10;;;;;;;52.28;48.83;;;;;;;5.35;100.00;101631.69;5061073;28;20045;-83
2023/02/03 10:36:53;;;;;;;53.05;49.45;;;;;;;5.19;100.00;101645.53;5068328;28;20418;-82
2023/02/03 10:39:29;;;;;;;54.15;50.35;;;;;;;5.60;100.00;101635.41;5062873;28;20091;-83
2023/02/03 10:41:56;;;;;;;50.70;47.60;;;;;;;6.67;100.00;101625.63;5064427;28;20057;-83
2023/02/03 10:44:29;;;;;;;50.33;47.22;;;;;;;6.87;100.00;101627.88;5063134;28;20158;-84
2023/02/03 10:46:57;;;;;;;49.45;46.35;;;;;;;8.14;100.00;101623.22;5062111;28;20048;-83
2023/02/03 10:49:27;;;;;;;49.45;46.55;;;;;;;7.47;100.00;101624.19;5064355;28;20118;-84
2023/02/03 10:52:01;;;;;;;49.10;46.20;;;;;;;8.68;100.00;101618.13;5065535;28;20503;-83
2023/02/03 10:54:31;;;;;;;48.78;45.80;;;;;;;9.18;100.00;101623.03;5068942;28;20167;-83
2023/02/03 10:57:04;;;;;;;50.60;47.33;;;;;;;8.85;100.00;101619.72;5065020;28;20076;-83
2023/02/03 10:59:34;;;;;;;48.80;45.90;;;;;;;9.18;100.00;101608.97;5054367;28;20487;-83
2023/02/03 11:02:08;;;;;;;49.45;46.45;;;;;;;8.31;100.00;101606.31;5055084;28;20465;-83
2023/02/03 11:04:37;;;;;;;49.45;46.42;;;;;;;8.16;100.00;101611.47;5054854;28;20045;-83
2023/02/03 11:07:05;;;;;;;51.00;47.90;;;;;;;7.62;100.00;101600.59;5055505;28;20553;-83
2023/02/03 11:09:36;;;;;;;51.88;48.58;;;;;;;8.11;100.00;101610.31;5061336;28;20058;-83
2023/02/03 11:12:09;;;;;;;51.38;48.28;;;;;;;8.34;100.00;101599.84;5061984;28;20049;-83
2023/02/03 11:14:37;;;;;;;51.50;48.40;;;;;;;8.43;100.00;101598.88;5064561;28;20048;-83
2023/02/03 11:17:08;;;;;;;53.28;50.17;;;;;;;7.38;100.00;101596.09;5061605;28;20472;-83
2023/02/03 11:19:39;;;;;;;51.97;48.97;;;;;;;8.43;100.00;101598.88;5064725;28;20495;-83
2023/02/03 11:22:06;;;;;;;52.28;49.13;;;;;;;10.78;100.00;101596.41;5066516;28;20084;-83
2023/02/03 11:24:38;;;;;;;53.92;50.60;;;;;;;9.98;100.00;101587.28;5068494;28;20110;-83
2023/02/03 11:27:07;;;;;;;53.20;50.15;;;;;;;9.09;100.00;101597.59;5064465;28;20548;-83
2023/02/03 11:29:35;;;;;;;52.58;49.13;;;;;;;9.60;100.00;101589.94;5062578;28;20107;-83